createdAt,value
2022-08-25T00:02:12.743Z,58.54
2022-08-25T00:04:44.642Z,58.89
2022-08-25T00:07:39.538Z,58.73
2022-08-25T00:10:10.261Z,59.04
2022-08-25T00:12:37.926Z,58.66
2022-08-25T00:15:06.911Z,58.50
2022-08-25T00:17:35.904Z,58.37
2022-08-25T00:20:15.015Z,58.01
2022-08-25T00:22:51.379Z,57.41
2022-08-25T00:25:26.886Z,57.99
2022-08-25T00:27:55.074Z,57.76
2022-08-25T00:30:34.290Z,58.42
2022-08-25T00:33:18.373Z,58.54
2022-08-25T00:36:02.566Z,58.67
2022-08-25T00:38:31.690Z,58.70
2022-08-25T00:41:10.073Z,58.85
2022-08-25T00:43:43.579Z,58.87
2022-08-25T00:46:23.207Z,59.25
2022-08-25T00:49:24.565Z,58.70
2022-08-25T00:52:05.975Z,59.06
2022-08-25T00:55:06.222Z,58.90
2022-08-25T00:57:49.114Z,58.86
2022-08-25T01:00:32.879Z,58.85
2022-08-25T01:03:07.546Z,59.05
2022-08-25T01:05:40.687Z,59.24
2022-08-25T01:08:10.172Z,58.87
2022-08-25T01:10:41.705Z,59.37
2022-08-25T01:13:16.375Z,59.05
2022-08-25T01:15:48.782Z,58.33
2022-08-25T01:18:17.380Z,58.05
2022-08-25T01:20:46.336Z,57.64
2022-08-25T01:23:14.924Z,58.97
2022-08-25T01:26:05.460Z,57.73
2022-08-25T01:28:33.318Z,57.84
2022-08-25T01:31:01.504Z,57.14
2022-08-25T01:33:29.213Z,56.51
2022-08-25T01:36:07.366Z,56.99
2022-08-25T01:38:46.502Z,56.09
2022-08-25T01:41:22.181Z,56.34
2022-08-25T01:43:50.531Z,55.95
2022-08-25T01:46:25.316Z,56.13
2022-08-25T01:49:06.671Z,55.86
2022-08-25T01:51:49.544Z,55.61
2022-08-25T01:54:17.277Z,55.07
2022-08-25T01:56:44.988Z,55.53
2022-08-25T01:59:18.551Z,55.34
2022-08-25T02:01:59.773Z,55.39
2022-08-25T02:04:32.596Z,55.04
2022-08-25T02:07:03.650Z,55.18
2022-08-25T02:09:31.969Z,55.71
2022-08-25T02:11:59.833Z,55.13
2022-08-25T02:14:28.876Z,55.48
2022-08-25T02:16:57.920Z,55.57
2022-08-25T02:19:26.603Z,55.49
2022-08-25T02:21:54.579Z,55.38
2022-08-25T02:24:22.314Z,55.36
2022-08-25T02:27:01.510Z,54.81
2022-08-25T02:29:34.133Z,55.84
2022-08-25T02:32:12.034Z,55.91
2022-08-25T02:34:42.078Z,55.93
2022-08-25T02:37:09.652Z,56.34
2022-08-25T02:39:38.411Z,56.04
2022-08-25T02:42:06.310Z,56.45
2022-08-25T02:44:33.829Z,55.97
2022-08-25T02:47:01.268Z,55.89
2022-08-25T02:49:29.035Z,56.14
2022-08-25T02:52:02.856Z,55.87
2022-08-25T02:54:34.932Z,56.74
2022-08-25T02:57:08.641Z,56.27
2022-08-25T02:59:43.246Z,56.17
2022-08-25T03:02:12.014Z,56.27
2022-08-25T03:04:39.757Z,56.22
2022-08-25T03:07:07.476Z,56.12
2022-08-25T03:09:35.094Z,56.35
2022-08-25T03:12:06.379Z,56.41
2022-08-25T03:14:34.356Z,56.24
2022-08-25T03:17:02.171Z,55.50
2022-08-25T03:19:30.195Z,55.77
2022-08-25T03:21:58.234Z,55.31
2022-08-25T03:24:27.168Z,55.90
2022-08-25T03:26:56.036Z,55.30
2022-08-25T03:29:33.240Z,55.06
2022-08-25T03:32:01.843Z,55.11
2022-08-25T03:34:31.099Z,55.49
2022-08-25T03:36:59.620Z,56.04
2022-08-25T03:39:28.045Z,56.29
2022-08-25T03:41:56.121Z,55.82
2022-08-25T03:44:25.127Z,56.06
2022-08-25T03:46:53.535Z,56.08
2022-08-25T03:49:23.636Z,56.92
2022-08-25T03:51:55.022Z,58.41
2022-08-25T03:54:26.216Z,58.36
2022-08-25T03:56:57.512Z,58.66
2022-08-25T03:59:30.490Z,59.69
2022-08-25T04:02:02.446Z,60.34
2022-08-25T04:04:29.988Z,59.60
2022-08-25T04:06:58.042Z,61.44
2022-08-25T04:09:26.447Z,61.47
2022-08-25T04:11:54.590Z,61.66
2022-08-25T04:14:24.406Z,61.32
2022-08-25T04:16:53.356Z,61.38
2022-08-25T04:19:22.362Z,61.41
2022-08-25T04:21:56.527Z,61.25
2022-08-25T04:24:24.363Z,60.84
2022-08-25T04:27:01.730Z,61.15
2022-08-25T04:29:30.407Z,60.13
2022-08-25T04:31:58.670Z,60.03
2022-08-25T04:34:31.413Z,59.58
2022-08-25T04:37:01.494Z,59.69
2022-08-25T04:39:30.105Z,59.88
2022-08-25T04:41:58.570Z,60.44
2022-08-25T04:44:27.110Z,60.46
2022-08-25T04:46:57.386Z,60.93
2022-08-25T04:49:25.757Z,60.86
2022-08-25T04:51:54.277Z,60.74
2022-08-25T04:54:26.731Z,59.95
2022-08-25T04:56:58.289Z,60.06
2022-08-25T04:59:29.520Z,59.48
2022-08-25T05:02:03.399Z,60.11
2022-08-25T05:04:33.470Z,59.40
2022-08-25T05:07:02.422Z,59.21
2022-08-25T05:09:32.519Z,59.34
2022-08-25T05:12:09.538Z,59.45
2022-08-25T05:14:50.862Z,59.53
2022-08-25T05:17:23.445Z,59.44
2022-08-25T05:19:58.239Z,59.67
2022-08-25T05:22:34.105Z,59.50
2022-08-25T05:25:10.125Z,59.70
2022-08-25T05:27:49.515Z,59.61
2022-08-25T05:30:21.568Z,59.56
2022-08-25T05:32:50.724Z,59.87
2022-08-25T05:35:20.560Z,59.56
2022-08-25T05:37:48.768Z,60.03
2022-08-25T05:40:16.601Z,59.42
2022-08-25T05:42:44.261Z,58.96
2022-08-25T05:45:15.844Z,58.53
2022-08-25T05:47:49.170Z,58.29
2022-08-25T05:50:17.590Z,58.02
2022-08-25T05:52:46.992Z,57.93
2022-08-25T05:55:16.052Z,57.88
2022-08-25T05:57:43.739Z,58.28
2022-08-25T06:00:12.542Z,57.76
2022-08-25T06:02:49.274Z,57.35
2022-08-25T06:05:22.080Z,57.48
2022-08-25T06:07:52.722Z,57.69
2022-08-25T06:10:20.496Z,57.45
2022-08-25T06:12:50.516Z,57.57
2022-08-25T06:15:22.269Z,57.35
2022-08-25T06:17:51.516Z,57.34
2022-08-25T06:20:22.206Z,56.86
2022-08-25T06:22:53.690Z,56.31
2022-08-25T06:25:25.244Z,56.33
2022-08-25T06:27:54.994Z,56.48
2022-08-25T06:30:28.580Z,56.35
2022-08-25T06:32:57.404Z,56.04
2022-08-25T06:35:26.084Z,56.28
2022-08-25T06:37:53.738Z,56.04
2022-08-25T06:40:21.563Z,55.36
2022-08-25T06:42:50.162Z,55.89
2022-08-25T06:45:19.182Z,55.38
2022-08-25T06:47:46.915Z,55.52
2022-08-25T06:50:15.107Z,55.42
2022-08-25T06:52:43.601Z,55.18
2022-08-25T06:55:11.689Z,54.96
2022-08-25T06:58:00.333Z,54.55
2022-08-25T07:00:30.416Z,54.79
2022-08-25T07:03:01.614Z,54.95
2022-08-25T07:05:45.188Z,55.25
2022-08-25T07:08:17.066Z,54.52
2022-08-25T07:10:49.901Z,54.67
2022-08-25T07:13:23.310Z,54.39
2022-08-25T07:15:56.440Z,54.68
2022-08-25T07:18:24.302Z,54.20
2022-08-25T07:20:58.921Z,54.57
2022-08-25T07:23:29.210Z,53.64
2022-08-25T07:25:57.712Z,53.76
2022-08-25T07:28:25.394Z,54.37
2022-08-25T07:31:06.780Z,54.36
2022-08-25T07:34:06.431Z,54.05
2022-08-25T07:36:48.513Z,53.90
2022-08-25T07:39:30.057Z,54.17
2022-08-25T07:42:00.912Z,53.95
2022-08-25T07:45:05.547Z,53.27
2022-08-25T07:47:36.981Z,53.29
2022-08-25T07:50:06.729Z,53.38
2022-08-25T07:52:42.150Z,52.42
2022-08-25T07:55:10.964Z,52.50
2022-08-25T07:57:43.752Z,51.84
2022-08-25T08:01:09.922Z,52.69
2022-08-25T08:03:50.568Z,51.71
2022-08-25T08:06:25.176Z,50.71
2022-08-25T08:08:57.852Z,50.66
2022-08-25T08:11:32.080Z,50.35
2022-08-25T08:14:01.884Z,49.73
2022-08-25T08:16:32.444Z,50.12
2022-08-25T08:19:01.097Z,50.01
2022-08-25T08:21:33.386Z,50.95
2022-08-25T08:24:05.048Z,51.72
2022-08-25T08:26:57.460Z,52.16
2022-08-25T08:29:26.172Z,52.07
2022-08-25T08:31:53.789Z,52.86
2022-08-25T08:34:57.610Z,53.17
2022-08-25T08:40:44.974Z,55.43
2022-08-25T08:43:19.421Z,56.24
2022-08-25T08:45:54.001Z,55.92
2022-08-25T08:51:53.771Z,56.78
2022-08-25T08:54:26.467Z,57.90
2022-08-25T09:00:09.364Z,58.22
2022-08-25T09:02:50.572Z,58.32
2022-08-25T09:05:29.182Z,58.20
2022-08-25T09:08:06.496Z,59.23
2022-08-25T09:10:44.976Z,58.71
2022-08-25T09:13:41.802Z,58.16
2022-08-25T09:20:23.960Z,57.35
2022-08-25T09:23:22.453Z,57.56
2022-08-25T09:26:22.144Z,56.15
2022-08-25T09:29:16.199Z,55.70
2022-08-25T09:31:45.961Z,57.68
2022-08-25T09:34:23.850Z,58.75
2022-08-25T09:36:53.619Z,61.54
2022-08-25T09:39:33.816Z,63.45
2022-08-25T09:42:01.835Z,62.96
2022-08-25T09:44:46.439Z,63.80
2022-08-25T09:47:32.750Z,65.04
2022-08-25T09:50:04.579Z,63.85
2022-08-25T09:52:38.368Z,63.44
2022-08-25T09:55:08.983Z,63.67
2022-08-25T09:57:44.159Z,63.47
2022-08-25T10:00:23.855Z,64.86
2022-08-25T10:03:22.757Z,64.29
2022-08-25T10:05:56.590Z,64.78
2022-08-25T10:08:39.510Z,66.14
2022-08-25T10:11:15.612Z,65.92
2022-08-25T10:13:47.272Z,65.32
2022-08-25T10:16:34.573Z,65.22
2022-08-25T10:19:30.301Z,64.53
2022-08-25T10:22:22.728Z,64.12
2022-08-25T10:24:50.977Z,63.38
2022-08-25T10:27:40.160Z,63.54
2022-08-25T10:31:00.818Z,64.71
2022-08-25T10:33:43.084Z,63.88
2022-08-25T10:36:33.605Z,63.75
2022-08-25T10:39:02.975Z,64.27
2022-08-25T10:41:41.986Z,65.07
2022-08-25T10:45:07.133Z,65.58
2022-08-25T10:47:46.647Z,65.02
2022-08-25T10:50:14.330Z,64.76
2022-08-25T10:53:00.764Z,64.00
2022-08-25T10:56:07.442Z,63.70
2022-08-25T10:59:13.454Z,63.18
2022-08-25T11:01:53.539Z,62.39
2022-08-25T11:04:38.516Z,62.91
2022-08-25T11:07:13.822Z,62.61
2022-08-25T11:09:49.299Z,63.02
2022-08-25T11:12:33.507Z,63.52
2022-08-25T11:15:22.284Z,63.05
2022-08-25T11:17:57.120Z,62.80
2022-08-25T11:20:35.342Z,63.05
2022-08-25T11:23:06.306Z,62.52
2022-08-25T11:25:46.258Z,62.91
2022-08-25T11:28:52.906Z,63.12
2022-08-25T11:31:22.672Z,63.42
2022-08-25T11:33:51.993Z,63.13
2022-08-25T11:36:32.798Z,62.91
2022-08-25T11:39:16.195Z,62.81
2022-08-25T11:42:09.955Z,62.87
2022-08-25T11:45:18.921Z,62.62
2022-08-25T11:47:55.688Z,62.68
2022-08-25T11:50:35.215Z,63.32
2022-08-25T11:53:12.107Z,63.52
2022-08-25T11:55:48.560Z,63.71
2022-08-25T11:58:37.414Z,63.35
2022-08-25T12:01:09.876Z,63.67
2022-08-25T12:03:38.697Z,63.59
2022-08-25T12:06:30.524Z,63.63
2022-08-25T12:09:00.741Z,64.41
2022-08-25T12:11:58.520Z,64.37
2022-08-25T12:14:27.938Z,64.21
2022-08-25T12:16:55.747Z,65.11
2022-08-25T12:19:40.689Z,64.86
2022-08-25T12:22:09.877Z,64.95
2022-08-25T12:24:54.402Z,65.36
2022-08-25T12:27:49.814Z,64.72
2022-08-25T12:30:27.531Z,65.49
2022-08-25T12:33:43.107Z,65.24
2022-08-25T12:36:12.506Z,65.40
2022-08-25T12:38:52.010Z,65.58
2022-08-25T12:41:31.249Z,65.86
2022-08-25T12:44:35.413Z,65.85
2022-08-25T12:47:23.647Z,65.88
2022-08-25T12:49:51.833Z,65.38
2022-08-25T12:52:27.798Z,64.92
2022-08-25T12:55:06.331Z,64.53
2022-08-25T12:58:01.198Z,64.51
2022-08-25T13:00:38.218Z,64.56
2022-08-25T13:06:32.595Z,65.87
2022-08-25T13:09:09.005Z,65.93
2022-08-25T13:12:06.251Z,66.03
2022-08-25T13:14:44.002Z,65.83
2022-08-25T13:17:13.509Z,65.34
2022-08-25T13:19:41.078Z,65.14
2022-08-25T13:22:16.842Z,65.12
2022-08-25T13:24:47.560Z,64.54
2022-08-25T13:27:41.144Z,64.58
2022-08-25T13:30:23.742Z,64.44
2022-08-25T13:33:26.880Z,64.82
2022-08-25T13:36:16.769Z,65.08
2022-08-25T13:38:48.510Z,64.01
2022-08-25T13:41:29.246Z,63.99
2022-08-25T13:44:00.928Z,64.05
2022-08-25T13:46:35.610Z,62.65
2022-08-25T13:49:37.309Z,61.42
2022-08-25T13:52:07.392Z,60.81
2022-08-25T13:54:51.429Z,61.25
2022-08-25T13:57:30.438Z,61.10
2022-08-25T14:00:16.785Z,61.30
2022-08-25T14:02:58.910Z,61.29
2022-08-25T14:06:01.163Z,61.10
2022-08-25T14:09:00.889Z,61.96
2022-08-25T14:12:00.323Z,61.45
2022-08-25T14:14:39.905Z,60.78
2022-08-25T14:17:36.503Z,61.69
2022-08-25T14:20:09.450Z,61.77
2022-08-25T14:22:37.733Z,61.53
2022-08-25T14:25:22.182Z,61.48
2022-08-25T14:28:06.411Z,61.20
2022-08-25T14:30:37.377Z,61.42
2022-08-25T14:33:13.824Z,61.81
2022-08-25T14:35:47.402Z,62.18
2022-08-25T14:38:16.013Z,62.45
2022-08-25T14:40:45.486Z,61.67
2022-08-25T14:43:31.439Z,61.58
2022-08-25T14:46:07.161Z,61.34
2022-08-25T14:48:42.241Z,60.29
2022-08-25T14:51:12.409Z,59.19
2022-08-25T14:54:15.545Z,59.55
2022-08-25T14:56:43.512Z,59.29
2022-08-25T14:59:10.764Z,59.19
2022-08-25T15:01:41.728Z,58.65
2022-08-25T15:04:38.765Z,58.41
2022-08-25T15:07:32.322Z,59.67
2022-08-25T15:10:13.590Z,59.48
2022-08-25T15:12:47.747Z,59.30
2022-08-25T15:15:16.080Z,58.59
2022-08-25T15:17:47.514Z,58.71
2022-08-25T15:20:29.239Z,59.08
2022-08-25T15:22:57.241Z,58.54
2022-08-25T15:25:25.546Z,58.43
2022-08-25T15:27:59.788Z,58.45
2022-08-25T15:30:31.393Z,57.79
2022-08-25T15:32:59.542Z,57.25
2022-08-25T15:35:29.257Z,57.10
2022-08-25T15:37:59.265Z,57.57
2022-08-25T15:40:31.592Z,58.95
2022-08-25T15:43:10.398Z,59.81
2022-08-25T15:45:38.807Z,60.45
2022-08-25T15:48:06.738Z,60.42
2022-08-25T15:50:38.613Z,61.58
2022-08-25T15:53:08.368Z,61.64
2022-08-25T15:55:40.643Z,61.53
2022-08-25T15:58:08.684Z,61.95
2022-08-25T16:00:41.821Z,62.26
2022-08-25T16:03:13.291Z,62.68
2022-08-25T16:05:48.457Z,62.62
2022-08-25T16:08:19.405Z,62.92
2022-08-25T16:10:47.904Z,63.33
2022-08-25T16:13:17.626Z,63.92
2022-08-25T16:15:54.088Z,64.90
2022-08-25T16:18:30.186Z,65.43
2022-08-25T16:20:58.979Z,65.44
2022-08-25T16:23:27.532Z,65.77
2022-08-25T16:26:05.575Z,65.88
2022-08-25T16:28:33.034Z,66.21
2022-08-25T16:31:01.372Z,67.25
2022-08-25T16:33:29.677Z,67.63
2022-08-25T16:36:15.183Z,68.72
2022-08-25T16:39:15.217Z,68.53
2022-08-25T16:41:43.652Z,68.93
2022-08-25T16:44:11.476Z,69.17
2022-08-25T16:46:42.156Z,68.74
2022-08-25T16:49:13.834Z,68.96
2022-08-25T16:51:43.762Z,68.29
2022-08-25T16:54:31.024Z,68.23
2022-08-25T16:56:58.777Z,69.10
2022-08-25T16:59:27.383Z,68.95
2022-08-25T17:01:55.207Z,69.18
2022-08-25T17:04:27.532Z,67.88
2022-08-25T17:07:00.124Z,68.31
2022-08-25T17:09:31.246Z,67.73
2022-08-25T17:12:00.103Z,68.35
2022-08-25T17:14:27.772Z,68.10
2022-08-25T17:17:01.626Z,68.03
2022-08-25T17:20:04.622Z,67.97
2022-08-25T17:22:53.321Z,68.68
2022-08-25T17:25:35.018Z,69.29
2022-08-25T17:28:04.182Z,69.42
2022-08-25T17:30:39.265Z,69.90
2022-08-25T17:40:13.293Z,70.51
2022-08-25T17:42:41.472Z,70.33
2022-08-25T17:45:09.307Z,70.40
2022-08-25T17:47:37.194Z,70.91
2022-08-25T17:50:05.387Z,71.09
2022-08-25T17:53:14.807Z,71.58
2022-08-25T17:55:44.551Z,71.66
2022-08-25T17:58:15.610Z,72.33
2022-08-25T18:00:47.540Z,72.76
2022-08-25T18:03:22.879Z,73.37
2022-08-25T18:05:53.101Z,73.42
2022-08-25T18:08:27.081Z,73.68
2022-08-25T18:14:16.829Z,73.49
2022-08-25T18:16:45.138Z,73.34
2022-08-25T18:19:16.659Z,73.23
2022-08-25T18:21:44.953Z,73.29
2022-08-25T18:24:29.266Z,73.63
2022-08-25T18:27:01.502Z,73.76
2022-08-25T18:29:29.784Z,73.66
2022-08-25T18:32:00.375Z,73.37
2022-08-25T18:34:32.031Z,74.39
2022-08-25T18:37:33.148Z,74.29
2022-08-25T18:40:19.399Z,70.99
2022-08-25T18:42:48.335Z,63.46
2022-08-25T18:45:23.538Z,59.00
2022-08-25T18:48:05.522Z,57.14
2022-08-25T18:50:40.417Z,53.05
2022-08-25T18:53:11.168Z,51.72
2022-08-25T18:55:44.269Z,51.60
2022-08-25T18:58:12.985Z,50.31
2022-08-25T19:00:57.212Z,50.59
2022-08-25T19:03:25.712Z,50.44
2022-08-25T19:05:57.817Z,51.39
2022-08-25T19:08:25.908Z,51.88
2022-08-25T19:10:54.735Z,49.75
2022-08-25T19:13:23.068Z,50.63
2022-08-25T19:15:52.771Z,50.12
2022-08-25T19:18:29.173Z,50.64
2022-08-25T19:20:59.154Z,50.04
2022-08-25T19:23:27.223Z,50.20
2022-08-25T19:25:55.061Z,51.48
2022-08-25T19:28:24.337Z,51.93
2022-08-25T19:31:10.718Z,52.17
2022-08-25T19:33:44.741Z,52.84
2022-08-25T19:36:14.124Z,54.16
2022-08-25T19:38:44.722Z,54.79
2022-08-25T19:41:15.077Z,55.45
2022-08-25T19:43:55.999Z,54.94
2022-08-25T19:46:35.429Z,55.13
2022-08-25T19:49:16.917Z,55.79
2022-08-25T19:51:51.327Z,56.28
2022-08-25T19:54:26.043Z,57.27
2022-08-25T19:56:55.718Z,58.30
2022-08-25T19:59:42.328Z,59.42
2022-08-25T20:02:21.508Z,59.68
2022-08-25T20:04:53.211Z,60.50
2022-08-25T20:07:39.811Z,60.83
2022-08-25T20:10:27.554Z,61.17
2022-08-25T20:13:31.541Z,61.26
2022-08-25T20:16:10.970Z,61.77
2022-08-25T20:18:38.645Z,61.99
2022-08-25T20:21:07.862Z,61.87
2022-08-25T20:23:55.191Z,62.01
2022-08-25T20:26:23.164Z,62.51
2022-08-25T20:28:57.984Z,63.52
2022-08-25T20:31:26.348Z,63.71
2022-08-25T20:34:00.966Z,63.53
2022-08-25T20:36:39.976Z,63.70
2022-08-25T20:39:28.216Z,63.63
2022-08-25T20:41:56.957Z,63.60
2022-08-25T20:44:36.690Z,63.53
2022-08-25T20:50:17.263Z,64.09
2022-08-25T20:52:45.863Z,64.68
2022-08-25T20:55:19.140Z,65.27
2022-08-25T20:57:48.029Z,66.09
2022-08-25T21:00:17.041Z,67.33
2022-08-25T21:02:47.614Z,67.85
2022-08-25T21:05:19.681Z,68.52
2022-08-25T21:07:47.521Z,69.87
2022-08-25T21:10:49.577Z,69.53
2022-08-25T21:13:40.065Z,70.32
2022-08-25T21:16:08.947Z,71.24
2022-08-25T21:18:37.129Z,71.22
2022-08-25T21:21:15.433Z,72.62
2022-08-25T21:23:50.907Z,72.14
2022-08-25T21:26:32.835Z,73.08
2022-08-25T21:29:06.198Z,72.74
2022-08-25T21:31:37.127Z,72.12
2022-08-25T21:34:07.268Z,72.63
2022-08-25T21:36:36.873Z,72.25
2022-08-25T21:39:41.971Z,72.10
2022-08-25T21:44:39.815Z,70.69
2022-08-25T21:47:30.478Z,70.48
2022-08-25T21:49:59.138Z,71.09
2022-08-25T21:52:27.323Z,70.30
2022-08-25T21:55:05.943Z,70.56
2022-08-25T21:57:38.857Z,69.23
2022-08-25T22:00:22.044Z,68.94
2022-08-25T22:02:50.661Z,69.25
2022-08-25T22:05:18.434Z,69.15
2022-08-25T22:07:47.959Z,68.30
2022-08-25T22:10:16.522Z,67.69
2022-08-25T22:12:45.939Z,67.96
2022-08-25T22:15:19.379Z,67.29
2022-08-25T22:17:48.457Z,67.84
2022-08-25T22:20:18.487Z,66.82
2022-08-25T22:22:46.559Z,66.61
2022-08-25T22:25:14.590Z,66.25
2022-08-25T22:27:42.902Z,66.33
2022-08-25T22:30:11.127Z,66.65
2022-08-25T22:32:42.951Z,66.61
2022-08-25T22:35:22.532Z,66.56
2022-08-25T22:38:01.835Z,66.78
2022-08-25T22:40:42.663Z,67.00
2022-08-25T22:43:36.745Z,67.74
2022-08-25T22:46:12.736Z,67.96
2022-08-25T22:49:24.065Z,68.04
2022-08-25T22:51:53.734Z,68.37
2022-08-25T22:54:31.880Z,68.95
2022-08-25T22:57:08.564Z,69.75
2022-08-25T22:59:36.513Z,70.53
2022-08-25T23:02:05.763Z,70.93
2022-08-25T23:04:36.182Z,71.29
2022-08-25T23:07:10.972Z,71.10
2022-08-25T23:09:39.417Z,71.12
2022-08-25T23:12:07.299Z,70.93
2022-08-25T23:17:29.498Z,71.11
2022-08-25T23:19:58.390Z,71.29
2022-08-25T23:22:32.640Z,71.86
2022-08-25T23:25:05.974Z,72.66
2022-08-25T23:27:51.671Z,72.51
2022-08-25T23:30:23.033Z,72.66
2022-08-25T23:32:50.654Z,72.54
2022-08-25T23:35:19.342Z,72.02
2022-08-25T23:37:47.925Z,71.39
2022-08-25T23:40:19.221Z,70.85
2022-08-25T23:42:47.769Z,70.59
2022-08-25T23:45:16.734Z,69.62
2022-08-25T23:47:44.463Z,69.77
2022-08-25T23:50:12.047Z,69.07
2022-08-25T23:52:39.541Z,68.25
2022-08-25T23:55:08.958Z,67.56
2022-08-25T23:57:36.596Z,66.06
